sensor_id;sensor_type;location;lat;lon;timestamp;temperature;humidity
6377;DHT22;3221;48.858;10.128;2023-06-05T00:00:24;16.80;74.40
6377;DHT22;3221;48.858;10.128;2023-06-05T00:02:51;16.80;74.10
6377;DHT22;3221;48.858;10.128;2023-06-05T00:05:18;16.80;73.70
6377;DHT22;3221;48.858;10.128;2023-06-05T00:07:45;16.60;73.30
6377;DHT22;3221;48.858;10.128;2023-06-05T00:10:12;16.60;73.40
6377;DHT22;3221;48.858;10.128;2023-06-05T00:12:39;16.70;73.70
6377;DHT22;3221;48.858;10.128;2023-06-05T00:15:08;16.60;74.00
6377;DHT22;3221;48.858;10.128;2023-06-05T00:17:35;16.70;74.50
6377;DHT22;3221;48.858;10.128;2023-06-05T00:20:04;16.80;73.40
6377;DHT22;3221;48.858;10.128;2023-06-05T00:22:36;16.60;73.60
6377;DHT22;3221;48.858;10.128;2023-06-05T00:25:04;16.60;72.80
6377;DHT22;3221;48.858;10.128;2023-06-05T00:27:31;16.50;73.80
6377;DHT22;3221;48.858;10.128;2023-06-05T00:29:58;16.40;74.30
6377;DHT22;3221;48.858;10.128;2023-06-05T00:32:25;16.40;74.70
6377;DHT22;3221;48.858;10.128;2023-06-05T00:34:52;16.30;74.90
6377;DHT22;3221;48.858;10.128;2023-06-05T00:37:20;16.30;75.10
6377;DHT22;3221;48.858;10.128;2023-06-05T00:39:47;16.40;75.60
6377;DHT22;3221;48.858;10.128;2023-06-05T00:42:14;16.20;75.40
6377;DHT22;3221;48.858;10.128;2023-06-05T00:44:41;16.40;75.90
6377;DHT22;3221;48.858;10.128;2023-06-05T00:47:08;16.10;75.70
6377;DHT22;3221;48.858;10.128;2023-06-05T00:49:36;16.20;75.90
6377;DHT22;3221;48.858;10.128;2023-06-05T00:52:03;16.30;75.70
6377;DHT22;3221;48.858;10.128;2023-06-05T00:54:31;16.30;75.40
6377;DHT22;3221;48.858;10.128;2023-06-05T00:56:58;16.40;74.50
6377;DHT22;3221;48.858;10.128;2023-06-05T00:59:26;16.20;73.50
6377;DHT22;3221;48.858;10.128;2023-06-05T01:01:56;16.20;72.70
6377;DHT22;3221;48.858;10.128;2023-06-05T01:04:23;16.30;74.30
6377;DHT22;3221;48.858;10.128;2023-06-05T01:06:50;16.10;74.30
6377;DHT22;3221;48.858;10.128;2023-06-05T01:09:18;16.00;74.20
6377;DHT22;3221;48.858;10.128;2023-06-05T01:11:58;16.10;74.30
6377;DHT22;3221;48.858;10.128;2023-06-05T01:14:31;16.00;74.00
6377;DHT22;3221;48.858;10.128;2023-06-05T01:17:01;16.10;73.50
6377;DHT22;3221;48.858;10.128;2023-06-05T01:19:29;16.00;74.00
6377;DHT22;3221;48.858;10.128;2023-06-05T01:21:59;16.10;74.10
6377;DHT22;3221;48.858;10.128;2023-06-05T01:24:26;16.00;75.00
6377;DHT22;3221;48.858;10.128;2023-06-05T01:29:49;15.80;76.00
6377;DHT22;3221;48.858;10.128;2023-06-05T01:32:28;15.70;75.80
6377;DHT22;3221;48.858;10.128;2023-06-05T01:35:08;16.00;75.40
6377;DHT22;3221;48.858;10.128;2023-06-05T01:37:41;15.70;75.10
6377;DHT22;3221;48.858;10.128;2023-06-05T01:40:13;15.70;75.10
6377;DHT22;3221;48.858;10.128;2023-06-05T01:42:41;15.70;75.60
6377;DHT22;3221;48.858;10.128;2023-06-05T01:45:10;15.50;75.50
6377;DHT22;3221;48.858;10.128;2023-06-05T01:47:38;15.70;75.70
6377;DHT22;3221;48.858;10.128;2023-06-05T01:50:07;15.60;75.40
6377;DHT22;3221;48.858;10.128;2023-06-05T01:52:35;15.70;75.40
6377;DHT22;3221;48.858;10.128;2023-06-05T01:55:02;15.60;76.60
6377;DHT22;3221;48.858;10.128;2023-06-05T01:57:29;15.50;76.60
6377;DHT22;3221;48.858;10.128;2023-06-05T01:59:58;15.30;77.00
6377;DHT22;3221;48.858;10.128;2023-06-05T02:02:24;15.50;76.60
6377;DHT22;3221;48.858;10.128;2023-06-05T02:04:51;15.50;76.50
6377;DHT22;3221;48.858;10.128;2023-06-05T02:07:21;15.50;76.30
6377;DHT22;3221;48.858;10.128;2023-06-05T02:09:48;15.40;76.80
6377;DHT22;3221;48.858;10.128;2023-06-05T02:12:14;15.50;77.20
6377;DHT22;3221;48.858;10.128;2023-06-05T02:14:42;15.30;77.10
6377;DHT22;3221;48.858;10.128;2023-06-05T02:17:11;15.40;77.30
6377;DHT22;3221;48.858;10.128;2023-06-05T02:19:40;15.30;77.60
6377;DHT22;3221;48.858;10.128;2023-06-05T02:22:07;15.10;77.90
6377;DHT22;3221;48.858;10.128;2023-06-05T02:24:35;15.20;77.80
6377;DHT22;3221;48.858;10.128;2023-06-05T02:27:03;15.10;77.60
6377;DHT22;3221;48.858;10.128;2023-06-05T02:29:30;15.10;77.60
6377;DHT22;3221;48.858;10.128;2023-06-05T02:31:57;15.10;77.80
6377;DHT22;3221;48.858;10.128;2023-06-05T02:34:25;15.00;78.00
6377;DHT22;3221;48.858;10.128;2023-06-05T02:36:51;15.00;78.70
6377;DHT22;3221;48.858;10.128;2023-06-05T02:39:18;15.00;78.20
6377;DHT22;3221;48.858;10.128;2023-06-05T02:41:45;14.90;78.90
6377;DHT22;3221;48.858;10.128;2023-06-05T02:44:12;14.80;79.30
6377;DHT22;3221;48.858;10.128;2023-06-05T02:46:39;14.70;78.60
6377;DHT22;3221;48.858;10.128;2023-06-05T02:49:06;14.70;79.60
6377;DHT22;3221;48.858;10.128;2023-06-05T02:51:33;14.70;79.40
6377;DHT22;3221;48.858;10.128;2023-06-05T02:54:00;14.60;80.00
6377;DHT22;3221;48.858;10.128;2023-06-05T02:56:27;14.60;80.30
6377;DHT22;3221;48.858;10.128;2023-06-05T02:58:54;14.60;80.80
6377;DHT22;3221;48.858;10.128;2023-06-05T03:01:24;14.60;81.00
6377;DHT22;3221;48.858;10.128;2023-06-05T03:03:52;14.50;81.20
6377;DHT22;3221;48.858;10.128;2023-06-05T03:06:21;14.50;81.40
6377;DHT22;3221;48.858;10.128;2023-06-05T03:08:55;14.50;80.90
6377;DHT22;3221;48.858;10.128;2023-06-05T03:11:22;14.50;81.80
6377;DHT22;3221;48.858;10.128;2023-06-05T03:13:52;14.30;81.60
6377;DHT22;3221;48.858;10.128;2023-06-05T03:16:19;14.50;82.10
6377;DHT22;3221;48.858;10.128;2023-06-05T03:18:50;14.30;81.50
6377;DHT22;3221;48.858;10.128;2023-06-05T03:21:18;14.30;82.60
6377;DHT22;3221;48.858;10.128;2023-06-05T03:23:45;14.30;82.70
6377;DHT22;3221;48.858;10.128;2023-06-05T03:26:14;14.20;83.00
6377;DHT22;3221;48.858;10.128;2023-06-05T03:28:41;14.20;83.40
6377;DHT22;3221;48.858;10.128;2023-06-05T03:31:10;14.20;83.40
6377;DHT22;3221;48.858;10.128;2023-06-05T03:33:43;14.20;83.00
6377;DHT22;3221;48.858;10.128;2023-06-05T03:36:10;14.10;83.30
6377;DHT22;3221;48.858;10.128;2023-06-05T03:38:37;14.10;83.50
6377;DHT22;3221;48.858;10.128;2023-06-05T03:41:04;14.10;83.20
6377;DHT22;3221;48.858;10.128;2023-06-05T03:43:31;14.10;83.80
6377;DHT22;3221;48.858;10.128;2023-06-05T03:45:58;14.10;83.90
6377;DHT22;3221;48.858;10.128;2023-06-05T03:48:26;14.00;83.70
6377;DHT22;3221;48.858;10.128;2023-06-05T03:50:54;14.00;84.10
6377;DHT22;3221;48.858;10.128;2023-06-05T03:53:22;14.00;84.50
6377;DHT22;3221;48.858;10.128;2023-06-05T03:55:50;14.00;84.90
6377;DHT22;3221;48.858;10.128;2023-06-05T03:58:26;14.10;84.30
6377;DHT22;3221;48.858;10.128;2023-06-05T04:00:55;14.10;83.50
6377;DHT22;3221;48.858;10.128;2023-06-05T04:03:24;14.40;82.60
6377;DHT22;3221;48.858;10.128;2023-06-05T04:05:54;14.40;83.40
6377;DHT22;3221;48.858;10.128;2023-06-05T04:08:21;14.60;85.00
6377;DHT22;3221;48.858;10.128;2023-06-05T04:10:47;14.60;85.90
6377;DHT22;3221;48.858;10.128;2023-06-05T04:13:15;14.70;86.60
6377;DHT22;3221;48.858;10.128;2023-06-05T04:15:43;14.80;86.40
6377;DHT22;3221;48.858;10.128;2023-06-05T04:18:11;14.70;86.80
6377;DHT22;3221;48.858;10.128;2023-06-05T04:20:38;14.80;87.00
6377;DHT22;3221;48.858;10.128;2023-06-05T04:23:05;14.60;86.60
6377;DHT22;3221;48.858;10.128;2023-06-05T04:25:34;14.60;86.30
6377;DHT22;3221;48.858;10.128;2023-06-05T04:28:01;14.50;86.00
6377;DHT22;3221;48.858;10.128;2023-06-05T04:30:28;14.60;85.50
6377;DHT22;3221;48.858;10.128;2023-06-05T04:32:59;14.40;86.10
6377;DHT22;3221;48.858;10.128;2023-06-05T04:35:26;14.30;86.30
6377;DHT22;3221;48.858;10.128;2023-06-05T04:37:54;14.30;86.90
6377;DHT22;3221;48.858;10.128;2023-06-05T04:40:23;14.20;86.40
6377;DHT22;3221;48.858;10.128;2023-06-05T04:42:52;14.70;85.30
6377;DHT22;3221;48.858;10.128;2023-06-05T04:45:23;14.80;85.10
6377;DHT22;3221;48.858;10.128;2023-06-05T04:47:51;14.50;85.30
6377;DHT22;3221;48.858;10.128;2023-06-05T04:50:23;14.50;86.00
6377;DHT22;3221;48.858;10.128;2023-06-05T04:52:53;14.30;85.90
6377;DHT22;3221;48.858;10.128;2023-06-05T04:55:21;14.20;85.10
6377;DHT22;3221;48.858;10.128;2023-06-05T04:57:52;14.30;85.10
6377;DHT22;3221;48.858;10.128;2023-06-05T05:00:20;14.50;85.90
6377;DHT22;3221;48.858;10.128;2023-06-05T05:02:47;14.40;86.10
6377;DHT22;3221;48.858;10.128;2023-06-05T05:05:14;14.30;86.30
6377;DHT22;3221;48.858;10.128;2023-06-05T05:07:44;14.40;86.10
6377;DHT22;3221;48.858;10.128;2023-06-05T05:10:12;14.40;86.80
6377;DHT22;3221;48.858;10.128;2023-06-05T05:12:39;14.50;86.80
6377;DHT22;3221;48.858;10.128;2023-06-05T05:15:07;14.50;87.40
6377;DHT22;3221;48.858;10.128;2023-06-05T05:17:34;14.50;87.60
6377;DHT22;3221;48.858;10.128;2023-06-05T05:20:01;14.60;88.00
6377;DHT22;3221;48.858;10.128;2023-06-05T05:22:30;14.60;87.30
6377;DHT22;3221;48.858;10.128;2023-06-05T05:24:57;14.60;87.10
6377;DHT22;3221;48.858;10.128;2023-06-05T05:27:24;14.80;88.00
6377;DHT22;3221;48.858;10.128;2023-06-05T05:29:52;14.80;87.60
6377;DHT22;3221;48.858;10.128;2023-06-05T05:32:19;14.80;87.40
6377;DHT22;3221;48.858;10.128;2023-06-05T05:34:47;14.70;87.10
6377;DHT22;3221;48.858;10.128;2023-06-05T05:37:14;14.90;88.60
6377;DHT22;3221;48.858;10.128;2023-06-05T05:39:41;14.90;88.40
6377;DHT22;3221;48.858;10.128;2023-06-05T05:42:08;15.00;88.90
6377;DHT22;3221;48.858;10.128;2023-06-05T05:44:35;15.20;90.00
6377;DHT22;3221;48.858;10.128;2023-06-05T05:47:02;15.00;90.00
6377;DHT22;3221;48.858;10.128;2023-06-05T05:49:29;14.90;89.20
6377;DHT22;3221;48.858;10.128;2023-06-05T05:51:56;14.80;88.80
6377;DHT22;3221;48.858;10.128;2023-06-05T05:54:23;14.80;89.70
6377;DHT22;3221;48.858;10.128;2023-06-05T05:56:54;14.80;90.70
6377;DHT22;3221;48.858;10.128;2023-06-05T05:59:21;14.90;88.60
6377;DHT22;3221;48.858;10.128;2023-06-05T06:01:48;15.00;89.70
6377;DHT22;3221;48.858;10.128;2023-06-05T06:04:19;15.40;90.80
6377;DHT22;3221;48.858;10.128;2023-06-05T06:06:46;15.30;90.40
6377;DHT22;3221;48.858;10.128;2023-06-05T06:09:19;15.10;90.60
6377;DHT22;3221;48.858;10.128;2023-06-05T06:11:46;15.20;90.40
6377;DHT22;3221;48.858;10.128;2023-06-05T06:14:12;15.30;90.50
6377;DHT22;3221;48.858;10.128;2023-06-05T06:16:39;15.30;90.80
6377;DHT22;3221;48.858;10.128;2023-06-05T06:19:07;15.50;91.20
6377;DHT22;3221;48.858;10.128;2023-06-05T06:21:34;15.40;91.60
6377;DHT22;3221;48.858;10.128;2023-06-05T06:24:01;15.30;90.80
6377;DHT22;3221;48.858;10.128;2023-06-05T06:26:29;15.50;90.90
6377;DHT22;3221;48.858;10.128;2023-06-05T06:28:57;15.30;90.50
6377;DHT22;3221;48.858;10.128;2023-06-05T06:31:26;15.40;90.80
6377;DHT22;3221;48.858;10.128;2023-06-05T06:33:53;15.30;90.40
6377;DHT22;3221;48.858;10.128;2023-06-05T06:36:20;15.40;90.30
6377;DHT22;3221;48.858;10.128;2023-06-05T06:38:47;15.40;90.50
6377;DHT22;3221;48.858;10.128;2023-06-05T06:41:14;15.50;91.30
6377;DHT22;3221;48.858;10.128;2023-06-05T06:43:41;15.60;91.10
6377;DHT22;3221;48.858;10.128;2023-06-05T06:46:08;15.80;91.10
6377;DHT22;3221;48.858;10.128;2023-06-05T06:48:35;15.90;91.50
6377;DHT22;3221;48.858;10.128;2023-06-05T06:51:02;15.90;90.90
6377;DHT22;3221;48.858;10.128;2023-06-05T06:53:30;16.00;91.30
6377;DHT22;3221;48.858;10.128;2023-06-05T06:55:57;16.10;91.10
6377;DHT22;3221;48.858;10.128;2023-06-05T06:58:24;16.10;91.60
6377;DHT22;3221;48.858;10.128;2023-06-05T07:00:51;16.30;91.70
6377;DHT22;3221;48.858;10.128;2023-06-05T07:03:18;16.20;91.80
6377;DHT22;3221;48.858;10.128;2023-06-05T07:05:44;16.40;91.30
6377;DHT22;3221;48.858;10.128;2023-06-05T07:08:11;16.40;91.00
6377;DHT22;3221;48.858;10.128;2023-06-05T07:10:39;16.80;90.70
6377;DHT22;3221;48.858;10.128;2023-06-05T07:13:06;16.60;90.20
6377;DHT22;3221;48.858;10.128;2023-06-05T07:15:33;16.50;90.00
6377;DHT22;3221;48.858;10.128;2023-06-05T07:18:00;16.70;90.00
6377;DHT22;3221;48.858;10.128;2023-06-05T07:20:28;16.80;90.20
6377;DHT22;3221;48.858;10.128;2023-06-05T07:22:55;16.70;89.90
6377;DHT22;3221;48.858;10.128;2023-06-05T07:25:22;16.80;90.00
6377;DHT22;3221;48.858;10.128;2023-06-05T07:27:51;16.70;90.20
6377;DHT22;3221;48.858;10.128;2023-06-05T07:30:18;16.80;90.30
6377;DHT22;3221;48.858;10.128;2023-06-05T07:32:44;17.00;90.10
6377;DHT22;3221;48.858;10.128;2023-06-05T07:35:12;17.00;90.20
6377;DHT22;3221;48.858;10.128;2023-06-05T07:37:40;17.10;90.20
6377;DHT22;3221;48.858;10.128;2023-06-05T07:40:08;17.20;90.20
6377;DHT22;3221;48.858;10.128;2023-06-05T07:42:35;17.20;89.90
6377;DHT22;3221;48.858;10.128;2023-06-05T07:45:02;17.20;90.10
6377;DHT22;3221;48.858;10.128;2023-06-05T07:47:29;17.20;90.00
6377;DHT22;3221;48.858;10.128;2023-06-05T07:50:00;17.40;90.30
6377;DHT22;3221;48.858;10.128;2023-06-05T07:52:27;17.30;90.50
6377;DHT22;3221;48.858;10.128;2023-06-05T07:54:54;17.30;90.30
6377;DHT22;3221;48.858;10.128;2023-06-05T07:57:21;17.30;90.20
6377;DHT22;3221;48.858;10.128;2023-06-05T07:59:51;17.50;89.80
6377;DHT22;3221;48.858;10.128;2023-06-05T08:02:18;17.50;89.60
6377;DHT22;3221;48.858;10.128;2023-06-05T08:04:45;17.50;89.40
6377;DHT22;3221;48.858;10.128;2023-06-05T08:07:13;17.60;89.80
6377;DHT22;3221;48.858;10.128;2023-06-05T08:09:41;17.60;90.50
6377;DHT22;3221;48.858;10.128;2023-06-05T08:12:08;17.70;90.50
6377;DHT22;3221;48.858;10.128;2023-06-05T08:14:35;17.60;90.10
6377;DHT22;3221;48.858;10.128;2023-06-05T08:17:03;17.60;90.20
6377;DHT22;3221;48.858;10.128;2023-06-05T08:19:30;17.60;90.50
6377;DHT22;3221;48.858;10.128;2023-06-05T08:21:57;17.80;90.20
6377;DHT22;3221;48.858;10.128;2023-06-05T08:24:24;17.90;90.00
6377;DHT22;3221;48.858;10.128;2023-06-05T08:26:51;17.90;89.70
6377;DHT22;3221;48.858;10.128;2023-06-05T08:29:18;17.90;90.50
6377;DHT22;3221;48.858;10.128;2023-06-05T08:31:45;18.00;89.70
6377;DHT22;3221;48.858;10.128;2023-06-05T08:34:12;18.20;90.30
6377;DHT22;3221;48.858;10.128;2023-06-05T08:36:39;18.10;90.30
6377;DHT22;3221;48.858;10.128;2023-06-05T08:39:06;18.10;89.60
6377;DHT22;3221;48.858;10.128;2023-06-05T08:41:32;18.20;90.00
6377;DHT22;3221;48.858;10.128;2023-06-05T08:44:02;18.20;90.40
6377;DHT22;3221;48.858;10.128;2023-06-05T08:46:29;18.30;89.20
6377;DHT22;3221;48.858;10.128;2023-06-05T08:48:58;18.30;89.00
6377;DHT22;3221;48.858;10.128;2023-06-05T08:51:28;18.30;89.70
6377;DHT22;3221;48.858;10.128;2023-06-05T08:54:01;18.30;89.90
6377;DHT22;3221;48.858;10.128;2023-06-05T08:56:29;18.40;89.40
6377;DHT22;3221;48.858;10.128;2023-06-05T08:58:58;18.50;89.20
6377;DHT22;3221;48.858;10.128;2023-06-05T09:01:26;18.40;89.90
6377;DHT22;3221;48.858;10.128;2023-06-05T09:03:53;18.40;89.50
6377;DHT22;3221;48.858;10.128;2023-06-05T09:06:20;18.30;89.70
6377;DHT22;3221;48.858;10.128;2023-06-05T09:08:48;18.50;89.70
6377;DHT22;3221;48.858;10.128;2023-06-05T09:11:30;18.60;89.00
6377;DHT22;3221;48.858;10.128;2023-06-05T09:13:59;18.50;88.80
6377;DHT22;3221;48.858;10.128;2023-06-05T09:16:37;18.70;90.10
6377;DHT22;3221;48.858;10.128;2023-06-05T09:19:05;18.70;88.60
6377;DHT22;3221;48.858;10.128;2023-06-05T09:21:33;18.70;89.60
6377;DHT22;3221;48.858;10.128;2023-06-05T09:24:10;18.80;88.50
6377;DHT22;3221;48.858;10.128;2023-06-05T09:26:48;18.80;87.80
6377;DHT22;3221;48.858;10.128;2023-06-05T09:29:35;18.70;87.30
6377;DHT22;3221;48.858;10.128;2023-06-05T09:32:04;19.10;88.50
6377;DHT22;3221;48.858;10.128;2023-06-05T09:34:34;19.30;88.30
6377;DHT22;3221;48.858;10.128;2023-06-05T09:37:12;19.30;87.30
6377;DHT22;3221;48.858;10.128;2023-06-05T09:39:41;19.40;87.20
6377;DHT22;3221;48.858;10.128;2023-06-05T09:42:10;19.50;85.00
6377;DHT22;3221;48.858;10.128;2023-06-05T09:44:37;19.50;84.80
6377;DHT22;3221;48.858;10.128;2023-06-05T09:47:09;19.20;83.90
6377;DHT22;3221;48.858;10.128;2023-06-05T09:52:09;19.30;83.50
6377;DHT22;3221;48.858;10.128;2023-06-05T09:54:37;19.40;84.00
6377;DHT22;3221;48.858;10.128;2023-06-05T09:57:07;19.30;85.00
6377;DHT22;3221;48.858;10.128;2023-06-05T09:59:45;19.30;85.60
6377;DHT22;3221;48.858;10.128;2023-06-05T10:02:17;19.20;86.20
6377;DHT22;3221;48.858;10.128;2023-06-05T10:04:48;19.50;84.90
6377;DHT22;3221;48.858;10.128;2023-06-05T10:07:16;19.80;84.90
6377;DHT22;3221;48.858;10.128;2023-06-05T10:09:44;19.70;84.90
6377;DHT22;3221;48.858;10.128;2023-06-05T10:12:12;19.90;84.20
6377;DHT22;3221;48.858;10.128;2023-06-05T10:14:41;19.90;84.50
6377;DHT22;3221;48.858;10.128;2023-06-05T10:17:10;19.80;84.70
6377;DHT22;3221;48.858;10.128;2023-06-05T10:19:44;19.90;84.40
6377;DHT22;3221;48.858;10.128;2023-06-05T10:22:12;19.80;84.30
6377;DHT22;3221;48.858;10.128;2023-06-05T10:24:46;19.60;84.50
6377;DHT22;3221;48.858;10.128;2023-06-05T10:30:19;19.90;83.60
6377;DHT22;3221;48.858;10.128;2023-06-05T10:38:22;19.80;82.70
6377;DHT22;3221;48.858;10.128;2023-06-05T10:40:54;19.80;80.40
6377;DHT22;3221;48.858;10.128;2023-06-05T10:46:33;20.00;81.90
6377;DHT22;3221;48.858;10.128;2023-06-05T10:49:14;19.90;82.90
6377;DHT22;3221;48.858;10.128;2023-06-05T10:51:47;20.10;84.60
6377;DHT22;3221;48.858;10.128;2023-06-05T10:57:05;20.10;82.50
6377;DHT22;3221;48.858;10.128;2023-06-05T10:59:38;20.10;83.60
6377;DHT22;3221;48.858;10.128;2023-06-05T11:07:27;20.30;85.00
6377;DHT22;3221;48.858;10.128;2023-06-05T11:10:13;20.30;83.80
6377;DHT22;3221;48.858;10.128;2023-06-05T11:12:53;20.50;84.10
6377;DHT22;3221;48.858;10.128;2023-06-05T11:17:56;20.60;82.60
6377;DHT22;3221;48.858;10.128;2023-06-05T11:27:50;20.60;80.20
6377;DHT22;3221;48.858;10.128;2023-06-05T11:30:19;20.60;80.20
6377;DHT22;3221;48.858;10.128;2023-06-05T11:33:09;20.60;80.40
6377;DHT22;3221;48.858;10.128;2023-06-05T11:35:42;20.50;79.80
6377;DHT22;3221;48.858;10.128;2023-06-05T11:38:13;20.60;81.10
6377;DHT22;3221;48.858;10.128;2023-06-05T11:40:41;20.40;80.70
6377;DHT22;3221;48.858;10.128;2023-06-05T11:43:10;20.60;80.60
6377;DHT22;3221;48.858;10.128;2023-06-05T11:45:39;20.70;79.30
6377;DHT22;3221;48.858;10.128;2023-06-05T11:48:14;20.90;79.60
6377;DHT22;3221;48.858;10.128;2023-06-05T11:51:01;20.80;79.30
6377;DHT22;3221;48.858;10.128;2023-06-05T11:53:30;20.90;77.70
6377;DHT22;3221;48.858;10.128;2023-06-05T11:55:58;20.80;79.30
6377;DHT22;3221;48.858;10.128;2023-06-05T11:58:33;20.80;80.50
6377;DHT22;3221;48.858;10.128;2023-06-05T12:01:15;20.80;81.00
6377;DHT22;3221;48.858;10.128;2023-06-05T12:04:03;20.70;80.60
6377;DHT22;3221;48.858;10.128;2023-06-05T12:06:30;20.80;80.10
6377;DHT22;3221;48.858;10.128;2023-06-05T12:09:11;20.90;80.20
6377;DHT22;3221;48.858;10.128;2023-06-05T12:11:38;20.80;79.90
6377;DHT22;3221;48.858;10.128;2023-06-05T12:14:09;20.70;79.00
6377;DHT22;3221;48.858;10.128;2023-06-05T12:16:38;20.90;81.10
6377;DHT22;3221;48.858;10.128;2023-06-05T12:19:18;20.90;79.70
6377;DHT22;3221;48.858;10.128;2023-06-05T12:21:47;21.10;77.90
6377;DHT22;3221;48.858;10.128;2023-06-05T12:24:15;21.10;77.30
6377;DHT22;3221;48.858;10.128;2023-06-05T12:26:53;21.20;77.70
6377;DHT22;3221;48.858;10.128;2023-06-05T12:29:23;21.20;78.00
6377;DHT22;3221;48.858;10.128;2023-06-05T12:31:51;21.50;74.50
6377;DHT22;3221;48.858;10.128;2023-06-05T12:34:18;21.70;76.80
6377;DHT22;3221;48.858;10.128;2023-06-05T12:36:45;21.70;76.30
6377;DHT22;3221;48.858;10.128;2023-06-05T12:39:14;21.60;77.30
6377;DHT22;3221;48.858;10.128;2023-06-05T12:41:42;21.60;77.20
6377;DHT22;3221;48.858;10.128;2023-06-05T12:44:11;21.60;76.50
6377;DHT22;3221;48.858;10.128;2023-06-05T12:46:37;21.70;78.30
6377;DHT22;3221;48.858;10.128;2023-06-05T12:49:05;21.60;77.10
6377;DHT22;3221;48.858;10.128;2023-06-05T12:51:32;21.70;76.50
6377;DHT22;3221;48.858;10.128;2023-06-05T12:53:59;21.70;76.10
6377;DHT22;3221;48.858;10.128;2023-06-05T12:56:26;21.70;75.80
6377;DHT22;3221;48.858;10.128;2023-06-05T12:58:56;21.80;75.70
6377;DHT22;3221;48.858;10.128;2023-06-05T13:01:24;21.80;77.60
6377;DHT22;3221;48.858;10.128;2023-06-05T13:03:52;21.90;77.90
6377;DHT22;3221;48.858;10.128;2023-06-05T13:06:20;21.80;76.60
6377;DHT22;3221;48.858;10.128;2023-06-05T13:08:47;21.70;75.40
6377;DHT22;3221;48.858;10.128;2023-06-05T13:11:14;21.80;77.20
6377;DHT22;3221;48.858;10.128;2023-06-05T13:13:41;21.90;77.20
6377;DHT22;3221;48.858;10.128;2023-06-05T13:16:09;21.80;76.70
6377;DHT22;3221;48.858;10.128;2023-06-05T13:18:37;21.80;77.20
6377;DHT22;3221;48.858;10.128;2023-06-05T13:21:04;22.00;74.70
6377;DHT22;3221;48.858;10.128;2023-06-05T13:23:32;22.20;72.80
6377;DHT22;3221;48.858;10.128;2023-06-05T13:26:00;22.00;74.70
6377;DHT22;3221;48.858;10.128;2023-06-05T13:28:28;21.90;74.90
6377;DHT22;3221;48.858;10.128;2023-06-05T13:30:55;21.90;74.70
6377;DHT22;3221;48.858;10.128;2023-06-05T13:33:23;21.90;75.70
6377;DHT22;3221;48.858;10.128;2023-06-05T13:35:51;22.10;76.60
6377;DHT22;3221;48.858;10.128;2023-06-05T13:38:20;22.20;74.10
6377;DHT22;3221;48.858;10.128;2023-06-05T13:40:49;22.30;77.20
6377;DHT22;3221;48.858;10.128;2023-06-05T13:43:19;22.20;74.60
6377;DHT22;3221;48.858;10.128;2023-06-05T13:45:46;22.30;73.70
6377;DHT22;3221;48.858;10.128;2023-06-05T13:48:13;22.30;75.10
6377;DHT22;3221;48.858;10.128;2023-06-05T13:50:39;22.30;76.10
6377;DHT22;3221;48.858;10.128;2023-06-05T13:53:07;22.50;73.50
6377;DHT22;3221;48.858;10.128;2023-06-05T13:55:34;22.60;73.60
6377;DHT22;3221;48.858;10.128;2023-06-05T13:58:01;22.40;75.00
6377;DHT22;3221;48.858;10.128;2023-06-05T14:00:29;22.30;74.20
6377;DHT22;3221;48.858;10.128;2023-06-05T14:02:57;22.10;73.80
6377;DHT22;3221;48.858;10.128;2023-06-05T14:05:25;22.00;73.50
6377;DHT22;3221;48.858;10.128;2023-06-05T14:07:52;22.00;72.70
6377;DHT22;3221;48.858;10.128;2023-06-05T14:10:21;22.20;74.40
6377;DHT22;3221;48.858;10.128;2023-06-05T14:12:49;22.30;75.20
6377;DHT22;3221;48.858;10.128;2023-06-05T14:15:17;22.30;74.70
6377;DHT22;3221;48.858;10.128;2023-06-05T14:17:46;22.50;74.50
6377;DHT22;3221;48.858;10.128;2023-06-05T14:20:13;22.60;74.70
6377;DHT22;3221;48.858;10.128;2023-06-05T14:22:40;22.80;75.10
6377;DHT22;3221;48.858;10.128;2023-06-05T14:25:08;22.80;73.80
6377;DHT22;3221;48.858;10.128;2023-06-05T14:27:37;22.90;74.30
6377;DHT22;3221;48.858;10.128;2023-06-05T14:30:04;22.90;74.30
6377;DHT22;3221;48.858;10.128;2023-06-05T14:32:33;22.90;75.10
6377;DHT22;3221;48.858;10.128;2023-06-05T14:35:00;22.90;73.50
6377;DHT22;3221;48.858;10.128;2023-06-05T14:37:27;23.00;73.80
6377;DHT22;3221;48.858;10.128;2023-06-05T14:39:53;23.20;73.70
6377;DHT22;3221;48.858;10.128;2023-06-05T14:42:22;23.20;73.30
6377;DHT22;3221;48.858;10.128;2023-06-05T14:44:49;23.20;72.20
6377;DHT22;3221;48.858;10.128;2023-06-05T14:47:16;23.20;73.30
6377;DHT22;3221;48.858;10.128;2023-06-05T14:49:42;23.20;72.90
6377;DHT22;3221;48.858;10.128;2023-06-05T14:52:09;23.20;73.20
6377;DHT22;3221;48.858;10.128;2023-06-05T14:54:36;23.00;72.50
6377;DHT22;3221;48.858;10.128;2023-06-05T14:57:03;23.10;74.60
6377;DHT22;3221;48.858;10.128;2023-06-05T14:59:30;23.20;72.00
6377;DHT22;3221;48.858;10.128;2023-06-05T15:01:57;23.40;72.50
6377;DHT22;3221;48.858;10.128;2023-06-05T15:04:25;23.60;72.50
6377;DHT22;3221;48.858;10.128;2023-06-05T15:06:52;23.40;72.90
6377;DHT22;3221;48.858;10.128;2023-06-05T15:09:21;23.40;73.50
6377;DHT22;3221;48.858;10.128;2023-06-05T15:11:48;23.20;73.00
6377;DHT22;3221;48.858;10.128;2023-06-05T15:14:17;23.00;72.90
6377;DHT22;3221;48.858;10.128;2023-06-05T15:16:43;22.90;72.10
6377;DHT22;3221;48.858;10.128;2023-06-05T15:19:11;22.80;73.20
6377;DHT22;3221;48.858;10.128;2023-06-05T15:21:38;22.70;73.00
6377;DHT22;3221;48.858;10.128;2023-06-05T15:24:05;22.60;74.20
6377;DHT22;3221;48.858;10.128;2023-06-05T15:26:32;22.60;73.50
6377;DHT22;3221;48.858;10.128;2023-06-05T15:28:59;22.70;75.00
6377;DHT22;3221;48.858;10.128;2023-06-05T15:31:26;22.60;74.40
6377;DHT22;3221;48.858;10.128;2023-06-05T15:33:53;22.70;73.50
6377;DHT22;3221;48.858;10.128;2023-06-05T15:36:20;22.90;73.10
6377;DHT22;3221;48.858;10.128;2023-06-05T15:38:47;23.00;75.10
6377;DHT22;3221;48.858;10.128;2023-06-05T15:41:14;23.10;73.80
6377;DHT22;3221;48.858;10.128;2023-06-05T15:43:41;23.00;72.40
6377;DHT22;3221;48.858;10.128;2023-06-05T15:46:08;22.90;74.00
6377;DHT22;3221;48.858;10.128;2023-06-05T15:48:35;22.80;74.50
6377;DHT22;3221;48.858;10.128;2023-06-05T15:51:02;22.50;75.60
6377;DHT22;3221;48.858;10.128;2023-06-05T15:53:31;22.50;71.30
6377;DHT22;3221;48.858;10.128;2023-06-05T15:56:09;22.40;71.90
6377;DHT22;3221;48.858;10.128;2023-06-05T15:58:36;22.30;74.20
6377;DHT22;3221;48.858;10.128;2023-06-05T16:01:02;22.30;72.80
6377;DHT22;3221;48.858;10.128;2023-06-05T16:03:29;22.30;73.40
6377;DHT22;3221;48.858;10.128;2023-06-05T16:05:56;22.30;74.70
6377;DHT22;3221;48.858;10.128;2023-06-05T16:08:23;22.30;75.40
6377;DHT22;3221;48.858;10.128;2023-06-05T16:10:50;22.30;75.10
6377;DHT22;3221;48.858;10.128;2023-06-05T16:13:17;22.30;75.60
6377;DHT22;3221;48.858;10.128;2023-06-05T16:15:44;22.20;76.10
6377;DHT22;3221;48.858;10.128;2023-06-05T16:18:11;22.10;76.10
6377;DHT22;3221;48.858;10.128;2023-06-05T16:20:38;22.20;76.10
6377;DHT22;3221;48.858;10.128;2023-06-05T16:23:05;22.40;75.60
6377;DHT22;3221;48.858;10.128;2023-06-05T16:25:32;22.30;76.50
6377;DHT22;3221;48.858;10.128;2023-06-05T16:27:59;22.30;76.70